createdAt,value
2023-03-02T00:01:54.512Z,4.20
2023-03-02T00:04:23.804Z,4.40
2023-03-02T00:06:58.569Z,3.80
2023-03-02T00:09:27.673Z,4.00
2023-03-02T00:11:56.744Z,3.80
2023-03-02T00:14:25.930Z,3.50
2023-03-02T00:16:54.280Z,3.40
2023-03-02T00:19:22.933Z,3.50
2023-03-02T00:21:51.420Z,3.80
2023-03-02T00:24:20.048Z,3.70
2023-03-02T00:26:48.360Z,3.50
2023-03-02T00:29:16.763Z,3.10
2023-03-02T00:31:45.094Z,3.30
2023-03-02T00:34:13.425Z,3.10
2023-03-02T00:36:42.055Z,2.80
2023-03-02T00:39:10.893Z,3.10
2023-03-02T00:41:39.292Z,2.90
2023-03-02T00:44:07.662Z,3.50
2023-03-02T00:46:36.980Z,2.90
2023-03-02T00:49:05.497Z,3.60
2023-03-02T00:51:34.241Z,3.20
2023-03-02T00:54:04.681Z,3.00
2023-03-02T00:56:35.354Z,3.10
2023-03-02T00:59:06.320Z,3.30
2023-03-02T01:01:38.023Z,3.50
2023-03-02T01:04:07.102Z,3.00
2023-03-02T01:06:35.543Z,3.00
2023-03-02T01:09:04.251Z,3.50
2023-03-02T01:11:33.299Z,3.50
2023-03-02T01:14:02.549Z,3.70
2023-03-02T01:16:31.377Z,3.20
2023-03-02T01:19:01.029Z,3.40
2023-03-02T01:21:29.503Z,3.40
2023-03-02T01:23:57.998Z,3.50
2023-03-02T01:26:26.918Z,4.00
2023-03-02T01:28:55.868Z,3.40
2023-03-02T01:31:24.986Z,3.40
2023-03-02T01:33:53.697Z,3.10
2023-03-02T01:36:22.720Z,3.60
2023-03-02T01:38:51.783Z,3.70
2023-03-02T01:41:20.180Z,3.70
2023-03-02T01:43:48.937Z,3.40
2023-03-02T01:46:24.792Z,3.70
2023-03-02T01:49:02.370Z,3.60
2023-03-02T01:51:55.017Z,3.40
2023-03-02T01:54:23.542Z,3.70
2023-03-02T01:56:58.917Z,3.40
2023-03-02T01:59:28.553Z,3.60
2023-03-02T02:01:57.293Z,4.30
2023-03-02T02:04:27.505Z,3.40
2023-03-02T02:07:01.528Z,3.70
2023-03-02T02:09:39.403Z,3.80
2023-03-02T02:12:19.159Z,3.40
2023-03-02T02:14:47.562Z,3.20
2023-03-02T02:17:18.840Z,3.20
2023-03-02T02:20:06.470Z,3.20
2023-03-02T02:22:44.782Z,3.40
2023-03-02T02:25:33.670Z,3.20
2023-03-02T02:28:09.807Z,3.20
2023-03-02T02:30:38.368Z,3.10
2023-03-02T02:33:06.754Z,3.30
2023-03-02T02:35:36.714Z,3.00
2023-03-02T02:38:06.510Z,3.20
2023-03-02T02:40:43.050Z,2.90
2023-03-02T02:43:13.903Z,3.20
2023-03-02T02:45:42.735Z,3.90
2023-03-02T02:48:15.549Z,2.60
2023-03-02T02:50:44.773Z,2.90
2023-03-02T02:53:25.290Z,2.60
2023-03-02T02:55:55.307Z,2.90
2023-03-02T02:58:35.515Z,2.90
2023-03-02T03:01:06.014Z,3.20
2023-03-02T03:03:38.247Z,2.70
2023-03-02T03:06:14.835Z,2.80
2023-03-02T03:08:46.168Z,2.60
2023-03-02T03:14:08.738Z,2.30
2023-03-02T03:16:39.573Z,2.70
2023-03-02T03:19:26.820Z,2.70
2023-03-02T03:21:57.145Z,2.10
2023-03-02T03:24:26.945Z,2.20
2023-03-02T03:26:55.951Z,2.40
2023-03-02T03:29:25.405Z,2.20
2023-03-02T03:31:56.583Z,2.50
2023-03-02T03:34:29.642Z,2.70
2023-03-02T03:37:02.249Z,2.80
2023-03-02T03:39:34.168Z,2.20
2023-03-02T03:42:02.593Z,2.70
2023-03-02T03:44:31.108Z,2.20
2023-03-02T03:46:59.689Z,2.80
2023-03-02T03:49:28.479Z,2.50
2023-03-02T03:51:57.165Z,2.40
2023-03-02T03:54:25.605Z,3.00
2023-03-02T03:56:54.949Z,2.00
2023-03-02T03:59:24.356Z,2.70
2023-03-02T04:02:00.298Z,2.80
2023-03-02T04:04:42.673Z,2.50
2023-03-02T04:07:17.110Z,2.60
2023-03-02T04:09:47.712Z,2.70
2023-03-02T04:12:22.285Z,3.40
2023-03-02T04:14:54.177Z,2.90
2023-03-02T04:17:23.082Z,3.10
2023-03-02T04:19:52.673Z,3.40
2023-03-02T04:22:21.596Z,2.70
2023-03-02T04:24:50.408Z,3.00
2023-03-02T04:27:19.065Z,2.70
2023-03-02T04:29:48.584Z,3.00
2023-03-02T04:32:17.426Z,2.90
2023-03-02T04:34:49.416Z,2.40
2023-03-02T04:37:17.681Z,2.90
2023-03-02T04:39:50.306Z,3.00
2023-03-02T04:42:21.280Z,3.10
2023-03-02T04:44:49.883Z,3.10
2023-03-02T04:47:18.185Z,3.30
2023-03-02T04:49:47.422Z,3.00
2023-03-02T04:52:17.995Z,3.10
2023-03-02T04:54:46.678Z,3.30
2023-03-02T04:57:15.347Z,3.60
2023-03-02T04:59:44.005Z,3.20
2023-03-02T05:02:12.750Z,3.80
2023-03-02T05:04:42.469Z,3.30
2023-03-02T05:07:11.122Z,3.70
2023-03-02T05:09:44.060Z,3.70
2023-03-02T05:12:12.416Z,3.60
2023-03-02T05:14:40.621Z,3.70
2023-03-02T05:17:10.149Z,3.40
2023-03-02T05:19:39.196Z,3.80
2023-03-02T05:22:07.759Z,4.20
2023-03-02T05:24:36.599Z,3.80
2023-03-02T05:27:06.031Z,3.10
2023-03-02T05:29:34.487Z,3.50
2023-03-02T05:32:02.774Z,3.60
2023-03-02T05:34:33.988Z,3.10
2023-03-02T05:37:02.247Z,2.70
2023-03-02T05:39:33.029Z,3.20
2023-03-02T05:42:01.436Z,2.90
2023-03-02T05:44:29.868Z,2.50
2023-03-02T05:46:58.613Z,2.70
2023-03-02T05:49:27.042Z,2.90
2023-03-02T05:51:57.547Z,3.10
2023-03-02T05:54:26.133Z,3.20
2023-03-02T05:56:56.585Z,2.70
2023-03-02T05:59:24.971Z,3.40
2023-03-02T06:01:59.052Z,3.60
2023-03-02T06:04:27.511Z,3.20
2023-03-02T06:06:56.337Z,3.50
2023-03-02T06:09:24.823Z,3.70
2023-03-02T06:13:29.858Z,3.40
2023-03-02T06:15:59.011Z,3.60
2023-03-02T06:18:28.190Z,4.10
2023-03-02T06:20:56.692Z,4.00
2023-03-02T06:23:25.333Z,3.50
2023-03-02T06:25:53.810Z,3.90
2023-03-02T06:28:22.516Z,4.10
2023-03-02T06:30:51.069Z,3.80
2023-03-02T06:33:21.642Z,3.60
2023-03-02T06:35:50.650Z,3.60
2023-03-02T06:38:19.483Z,4.10
2023-03-02T06:40:48.230Z,3.40
2023-03-02T06:43:17.171Z,3.50
2023-03-02T06:45:45.529Z,3.60
2023-03-02T06:48:13.928Z,3.80
2023-03-02T06:50:43.141Z,3.50
2023-03-02T06:53:12.561Z,3.60
2023-03-02T06:55:40.817Z,3.70
2023-03-02T06:58:13.404Z,3.30
2023-03-02T07:00:41.727Z,3.00
2023-03-02T07:03:13.001Z,3.60
2023-03-02T07:05:41.481Z,3.80
2023-03-02T07:08:14.550Z,4.10
2023-03-02T07:10:43.740Z,3.50
2023-03-02T07:13:12.154Z,3.00
2023-03-02T07:15:45.469Z,3.70
2023-03-02T07:18:13.723Z,3.60
2023-03-02T07:20:42.103Z,3.50
2023-03-02T07:23:10.664Z,3.50
2023-03-02T07:25:38.994Z,2.90
2023-03-02T07:28:08.170Z,2.90
2023-03-02T07:30:36.534Z,2.90
2023-03-02T07:33:05.110Z,3.30
2023-03-02T07:35:34.231Z,3.30
2023-03-02T07:38:02.630Z,2.90
2023-03-02T07:40:32.488Z,3.10
2023-03-02T07:43:00.930Z,3.60
2023-03-02T07:45:30.816Z,3.60
2023-03-02T07:48:00.180Z,3.30
2023-03-02T07:50:28.551Z,3.50
2023-03-02T07:52:59.161Z,3.40
2023-03-02T07:55:28.721Z,2.80
2023-03-02T07:57:58.265Z,3.20
2023-03-02T08:00:27.009Z,3.50
2023-03-02T08:02:55.381Z,3.30
2023-03-02T08:05:29.003Z,3.00
2023-03-02T08:07:57.384Z,3.20
2023-03-02T08:10:26.625Z,3.10
2023-03-02T08:12:54.843Z,2.50
2023-03-02T08:15:23.670Z,3.40
2023-03-02T08:17:53.198Z,3.50
2023-03-02T08:20:22.128Z,3.60
2023-03-02T08:22:52.416Z,3.60
2023-03-02T08:25:20.702Z,3.50
2023-03-02T08:27:49.060Z,3.00
2023-03-02T08:30:22.706Z,3.20
2023-03-02T08:32:51.253Z,3.30
2023-03-02T08:35:19.664Z,3.40
2023-03-02T08:37:49.241Z,3.70
2023-03-02T08:40:18.822Z,3.50
2023-03-02T08:42:47.282Z,4.00
2023-03-02T08:45:21.669Z,4.10
2023-03-02T08:47:53.266Z,3.90
2023-03-02T08:50:21.638Z,3.40
2023-03-02T08:52:52.263Z,2.80
2023-03-02T08:55:22.036Z,3.50
2023-03-02T08:57:50.346Z,2.80
2023-03-02T09:00:19.699Z,3.70
2023-03-02T09:02:48.226Z,3.60
2023-03-02T09:05:16.706Z,3.20
2023-03-02T09:07:45.438Z,3.40
2023-03-02T09:10:17.439Z,3.50
2023-03-02T09:12:46.588Z,3.20
2023-03-02T09:15:14.954Z,2.80
2023-03-02T09:17:43.465Z,3.10
2023-03-02T09:20:12.186Z,3.10
2023-03-02T09:22:42.671Z,3.00
2023-03-02T09:25:11.018Z,3.10
2023-03-02T09:27:39.709Z,2.90
2023-03-02T09:30:10.276Z,3.50
2023-03-02T09:32:38.810Z,3.10
2023-03-02T09:35:07.748Z,3.30
2023-03-02T09:37:39.083Z,3.00
2023-03-02T09:40:22.406Z,3.10
2023-03-02T09:42:59.627Z,4.00
2023-03-02T09:46:04.153Z,3.10
2023-03-02T09:48:35.372Z,3.50
2023-03-02T09:51:15.028Z,3.20
2023-03-02T09:53:43.293Z,3.00
2023-03-02T09:56:17.231Z,3.20
2023-03-02T09:59:12.316Z,2.50
2023-03-02T10:01:46.381Z,2.70
2023-03-02T10:04:56.741Z,2.70
2023-03-02T10:07:30.633Z,2.80
2023-03-02T10:10:18.006Z,3.50
2023-03-02T10:13:03.642Z,3.00
2023-03-02T10:15:41.381Z,2.40
2023-03-02T10:18:16.159Z,2.50
2023-03-02T10:20:54.912Z,2.50
2023-03-02T10:23:46.571Z,2.80
2023-03-02T10:26:23.995Z,2.50
2023-03-02T10:29:05.990Z,3.00
2023-03-02T10:31:35.087Z,2.60
2023-03-02T10:34:03.701Z,2.30
2023-03-02T10:36:38.438Z,2.90
2023-03-02T10:39:08.472Z,2.60
2023-03-02T10:41:41.847Z,2.40
2023-03-02T10:44:22.368Z,2.70
2023-03-02T10:46:53.943Z,2.40
2023-03-02T10:49:25.450Z,3.00
2023-03-02T10:52:00.336Z,2.80
2023-03-02T10:54:30.564Z,2.50
2023-03-02T10:57:01.623Z,2.70
2023-03-02T10:59:33.077Z,2.80
2023-03-02T11:02:12.785Z,2.30
2023-03-02T11:04:41.179Z,2.10
2023-03-02T11:07:20.059Z,2.70
2023-03-02T11:10:18.012Z,2.10
2023-03-02T11:12:47.773Z,2.00
2023-03-02T11:15:26.585Z,1.90
2023-03-02T11:18:12.344Z,2.00
2023-03-02T11:20:42.815Z,2.20
2023-03-02T11:23:38.008Z,1.60
2023-03-02T11:26:18.464Z,1.70
2023-03-02T11:28:54.987Z,2.60
2023-03-02T11:31:30.510Z,3.00
2023-03-02T11:34:11.783Z,3.10
2023-03-02T11:36:55.024Z,2.50
2023-03-02T11:41:54.670Z,2.30
2023-03-02T11:44:24.959Z,2.40
2023-03-02T11:46:59.320Z,2.50
2023-03-02T11:49:40.991Z,2.60
2023-03-02T11:52:30.498Z,2.80
2023-03-02T11:55:20.391Z,3.00
2023-03-02T12:00:41.773Z,2.50
2023-03-02T12:03:16.586Z,2.70
2023-03-02T12:06:16.807Z,2.20
2023-03-02T12:08:46.179Z,1.90
2023-03-02T12:11:17.820Z,1.80
2023-03-02T12:13:58.363Z,2.00
2023-03-02T12:16:33.096Z,1.60
2023-03-02T12:19:15.199Z,2.30
2023-03-02T12:21:57.759Z,2.10
2023-03-02T12:24:28.686Z,2.40
2023-03-02T12:27:25.783Z,2.00
2023-03-02T12:30:09.934Z,2.30
2023-03-02T12:32:38.425Z,2.10
2023-03-02T12:35:12.174Z,2.10
2023-03-02T12:37:53.442Z,1.80
2023-03-02T12:40:41.346Z,1.90
2023-03-02T12:43:19.933Z,2.10
2023-03-02T12:45:54.282Z,1.90
2023-03-02T12:48:32.209Z,2.20
2023-03-02T12:51:02.180Z,2.30
2023-03-02T12:53:30.679Z,2.30
2023-03-02T12:56:03.810Z,2.40
2023-03-02T12:58:34.253Z,1.80
2023-03-02T13:01:03.169Z,2.20
2023-03-02T13:03:33.176Z,2.10
2023-03-02T13:06:11.313Z,1.90
2023-03-02T13:08:39.740Z,2.30
2023-03-02T13:11:08.618Z,2.00
2023-03-02T13:13:40.711Z,1.60
2023-03-02T13:16:23.036Z,1.90
2023-03-02T13:18:56.848Z,1.80
2023-03-02T13:21:33.960Z,1.70
2023-03-02T13:24:02.649Z,1.30
2023-03-02T13:26:33.352Z,1.40
2023-03-02T13:29:14.789Z,1.20
2023-03-02T13:31:43.525Z,1.70
2023-03-02T13:34:29.148Z,1.30
2023-03-02T13:36:57.545Z,1.60
2023-03-02T13:39:29.281Z,1.90
2023-03-02T13:41:59.330Z,1.70
2023-03-02T13:44:32.076Z,2.10
2023-03-02T13:47:00.962Z,1.80
2023-03-02T13:49:35.873Z,1.60
2023-03-02T13:52:08.402Z,2.00
2023-03-02T13:54:37.387Z,1.90
2023-03-02T13:57:05.645Z,1.90
2023-03-02T13:59:37.291Z,1.50
2023-03-02T14:02:19.833Z,1.80
2023-03-02T14:04:48.557Z,1.80
2023-03-02T14:07:18.424Z,2.00
2023-03-02T14:09:47.080Z,2.00
2023-03-02T14:12:27.502Z,1.90
2023-03-02T14:14:57.620Z,2.20
2023-03-02T14:17:26.146Z,1.80
2023-03-02T14:19:56.677Z,2.00
2023-03-02T14:22:26.393Z,2.40
2023-03-02T14:24:55.663Z,2.20
2023-03-02T14:27:26.070Z,2.00
2023-03-02T14:29:54.449Z,2.50
2023-03-02T14:32:23.090Z,2.70
2023-03-02T14:34:51.652Z,2.80
2023-03-02T14:37:21.956Z,2.50
2023-03-02T14:39:55.607Z,2.30
2023-03-02T14:42:24.338Z,1.90
2023-03-02T14:44:53.055Z,2.00
2023-03-02T14:47:22.042Z,1.70
2023-03-02T14:49:50.899Z,1.80
2023-03-02T14:52:21.618Z,1.70
2023-03-02T14:54:52.158Z,1.60
2023-03-02T14:57:25.372Z,1.10
2023-03-02T14:59:54.049Z,1.40
2023-03-02T15:02:26.085Z,2.40
2023-03-02T15:05:15.204Z,1.90
2023-03-02T15:07:44.271Z,2.50
2023-03-02T15:10:18.616Z,2.20
2023-03-02T15:12:46.955Z,1.90
2023-03-02T15:15:17.211Z,2.20
2023-03-02T15:17:45.783Z,3.00
2023-03-02T15:20:17.235Z,2.90
2023-03-02T15:22:47.032Z,2.40
2023-03-02T15:25:15.619Z,2.60
2023-03-02T15:27:44.286Z,2.30
2023-03-02T15:30:12.959Z,2.80
2023-03-02T15:32:41.282Z,3.00
2023-03-02T15:35:10.243Z,3.40
2023-03-02T15:37:40.107Z,3.60
2023-03-02T15:40:09.901Z,3.50
2023-03-02T15:42:38.433Z,3.40
2023-03-02T15:45:07.274Z,3.10
2023-03-02T15:47:37.676Z,3.30
2023-03-02T15:50:06.379Z,3.60
2023-03-02T15:52:35.054Z,3.30
2023-03-02T15:55:03.968Z,3.30
2023-03-02T15:57:39.552Z,3.50
2023-03-02T16:00:13.620Z,3.50
2023-03-02T16:02:43.551Z,3.40
2023-03-02T16:05:14.018Z,4.00
2023-03-02T16:07:43.462Z,4.20
2023-03-02T16:10:15.529Z,4.40
2023-03-02T16:12:44.182Z,4.10
2023-03-02T16:15:15.160Z,4.70
2023-03-02T16:17:44.164Z,4.40
2023-03-02T16:20:13.294Z,4.30
2023-03-02T16:22:41.642Z,4.60
2023-03-02T16:25:10.027Z,4.60
2023-03-02T16:27:38.757Z,4.40
2023-03-02T16:30:11.042Z,4.60
2023-03-02T16:32:40.704Z,4.60
2023-03-02T16:35:09.332Z,4.50
2023-03-02T16:37:38.157Z,5.20
2023-03-02T16:40:07.281Z,4.90
2023-03-02T16:42:41.894Z,4.90
2023-03-02T16:45:10.726Z,5.10
2023-03-02T16:47:39.586Z,5.30
2023-03-02T16:50:08.717Z,5.10
2023-03-02T16:52:37.319Z,6.00
2023-03-02T16:55:09.175Z,6.80
2023-03-02T16:57:37.535Z,7.00
2023-03-02T17:00:08.700Z,8.60
2023-03-02T17:02:37.626Z,9.60
2023-03-02T17:05:11.927Z,9.20
2023-03-02T17:07:41.279Z,9.70
2023-03-02T17:10:12.639Z,8.50
2023-03-02T17:12:42.490Z,8.30
2023-03-02T17:15:13.521Z,8.80
2023-03-02T17:17:42.936Z,7.90
2023-03-02T17:20:12.774Z,7.30
2023-03-02T17:22:41.093Z,7.20
2023-03-02T17:25:11.790Z,6.90
2023-03-02T17:27:40.826Z,5.80
2023-03-02T17:30:14.027Z,6.90
2023-03-02T17:32:42.505Z,5.80
2023-03-02T17:35:11.588Z,5.70
2023-03-02T17:37:41.964Z,6.40
2023-03-02T17:40:14.465Z,6.70
2023-03-02T17:42:43.849Z,7.50
2023-03-02T17:45:19.960Z,7.80
2023-03-02T17:47:52.078Z,8.50
2023-03-02T17:50:21.531Z,8.00
2023-03-02T17:52:50.118Z,8.40
2023-03-02T17:55:18.667Z,7.80
2023-03-02T17:57:46.985Z,7.20
2023-03-02T18:00:17.438Z,6.50
2023-03-02T18:02:46.433Z,6.00
2023-03-02T18:05:15.336Z,6.70
2023-03-02T18:07:44.089Z,5.60
2023-03-02T18:10:14.610Z,6.10
2023-03-02T18:12:43.053Z,5.90
2023-03-02T18:15:11.997Z,6.80
2023-03-02T18:17:40.610Z,6.30
2023-03-02T18:20:10.162Z,6.40
2023-03-02T18:22:38.517Z,5.70
2023-03-02T18:25:07.444Z,7.10
2023-03-02T18:29:42.571Z,6.90
2023-03-02T18:32:13.814Z,6.60
2023-03-02T18:34:43.538Z,7.30
2023-03-02T18:37:11.919Z,7.00
2023-03-02T18:39:40.621Z,7.10
2023-03-02T18:42:10.506Z,7.40
2023-03-02T18:44:40.150Z,7.70
2023-03-02T18:47:08.836Z,6.80
2023-03-02T18:49:38.503Z,6.80
2023-03-02T18:52:07.008Z,6.20
2023-03-02T18:54:36.363Z,6.80
2023-03-02T18:57:07.554Z,7.20
2023-03-02T18:59:36.913Z,6.10
2023-03-02T19:02:10.201Z,6.30
2023-03-02T19:04:40.294Z,6.00
2023-03-02T19:07:09.152Z,6.30
2023-03-02T19:09:37.536Z,6.20
2023-03-02T19:12:09.754Z,7.20
2023-03-02T19:14:39.860Z,6.70
2023-03-02T19:17:08.677Z,6.50
2023-03-02T19:19:37.563Z,6.40
2023-03-02T19:22:06.633Z,6.90
2023-03-02T19:24:35.449Z,7.00
2023-03-02T19:27:03.925Z,7.50
2023-03-02T19:29:34.440Z,8.50
2023-03-02T19:32:02.938Z,7.80
2023-03-02T19:34:31.918Z,7.80
2023-03-02T19:37:00.298Z,8.50
2023-03-02T19:39:28.568Z,7.80
2023-03-02T19:41:57.010Z,7.20
2023-03-02T19:44:26.082Z,7.60
2023-03-02T19:46:54.613Z,6.70
2023-03-02T19:49:22.840Z,6.90
2023-03-02T19:51:51.206Z,7.60
2023-03-02T19:54:19.552Z,7.00
2023-03-02T19:56:53.656Z,7.70
2023-03-02T19:59:22.908Z,7.30
2023-03-02T20:01:53.040Z,7.60
2023-03-02T20:04:25.210Z,7.50
2023-03-02T20:06:54.008Z,7.20
2023-03-02T20:09:24.328Z,7.10
2023-03-02T20:11:53.959Z,7.80
2023-03-02T20:14:33.469Z,8.00
2023-03-02T20:17:03.112Z,7.50
2023-03-02T20:19:31.854Z,8.20
2023-03-02T20:22:03.275Z,7.80
2023-03-02T20:24:32.578Z,8.10
2023-03-02T20:27:01.248Z,8.60
2023-03-02T20:29:30.109Z,9.40
2023-03-02T20:31:58.953Z,9.10
2023-03-02T20:34:27.753Z,9.80
2023-03-02T20:36:56.077Z,9.90
2023-03-02T20:39:26.873Z,9.70
2023-03-02T20:41:55.451Z,9.40
2023-03-02T20:44:26.242Z,10.00
2023-03-02T20:46:56.208Z,11.00
2023-03-02T20:49:25.694Z,11.10
2023-03-02T20:51:54.990Z,13.40
2023-03-02T20:54:34.542Z,13.10
2023-03-02T20:57:02.910Z,14.00
2023-03-02T20:59:33.417Z,13.20
2023-03-02T21:02:01.854Z,13.50
2023-03-02T21:04:30.353Z,12.90
2023-03-02T21:06:59.121Z,12.80
2023-03-02T21:09:27.583Z,11.70
2023-03-02T21:11:59.035Z,12.60
2023-03-02T21:14:30.863Z,12.10
2023-03-02T21:16:59.945Z,12.90
2023-03-02T21:19:29.785Z,13.80
2023-03-02T21:21:58.828Z,15.80
2023-03-02T21:24:33.380Z,16.70
2023-03-02T21:27:02.785Z,19.40
2023-03-02T21:29:31.785Z,17.80
2023-03-02T21:32:00.161Z,19.00
2023-03-02T21:34:29.396Z,17.80
2023-03-02T21:36:59.749Z,18.00
2023-03-02T21:39:28.048Z,17.10
2023-03-02T21:42:01.740Z,15.40
2023-03-02T21:44:30.108Z,14.60
2023-03-02T21:46:58.336Z,11.70
2023-03-02T21:49:26.719Z,9.80
2023-03-02T21:51:55.483Z,9.50
2023-03-02T21:54:23.964Z,7.60
2023-03-02T21:56:52.405Z,6.90
2023-03-02T21:59:20.663Z,7.80
2023-03-02T22:01:49.338Z,6.40
2023-03-02T22:04:17.720Z,6.00
2023-03-02T22:06:46.945Z,6.90
2023-03-02T22:09:15.378Z,6.20
2023-03-02T22:11:43.786Z,6.80
2023-03-02T22:14:16.751Z,6.10
2023-03-02T22:16:47.514Z,5.70
2023-03-02T22:19:26.413Z,7.10
2023-03-02T22:21:55.844Z,6.60
2023-03-02T22:24:26.356Z,6.60
2023-03-02T22:27:16.683Z,5.40
2023-03-02T22:29:46.102Z,5.70
2023-03-02T22:32:30.767Z,6.00
2023-03-02T22:35:14.733Z,6.70
2023-03-02T22:37:43.022Z,7.40
2023-03-02T22:40:18.252Z,8.30
2023-03-02T22:42:47.793Z,9.50
2023-03-02T22:45:20.042Z,9.20
2023-03-02T22:47:51.628Z,10.00
2023-03-02T22:50:30.173Z,10.60
2023-03-02T22:52:58.675Z,9.30
2023-03-02T22:55:38.457Z,10.10
2023-03-02T22:58:19.477Z,10.20
2023-03-02T23:00:48.198Z,10.50
2023-03-02T23:03:21.772Z,10.20
2023-03-02T23:05:51.955Z,8.90
2023-03-02T23:08:30.589Z,9.00
2023-03-02T23:10:59.456Z,8.90
2023-03-02T23:13:38.744Z,8.60
2023-03-02T23:16:27.227Z,8.90
2023-03-02T23:18:56.797Z,8.70
2023-03-02T23:21:37.837Z,8.50
2023-03-02T23:24:07.863Z,8.60
2023-03-02T23:26:36.152Z,8.40
2023-03-02T23:29:24.292Z,8.70
2023-03-02T23:31:55.419Z,9.80
2023-03-02T23:34:24.414Z,8.30
2023-03-02T23:36:52.780Z,9.40
2023-03-02T23:39:21.099Z,8.10
2023-03-02T23:41:49.711Z,8.60
2023-03-02T23:44:19.035Z,8.10
2023-03-02T23:46:47.575Z,8.40
2023-03-02T23:49:16.018Z,8.30
2023-03-02T23:51:44.818Z,8.60
2023-03-02T23:54:13.484Z,7.50
2023-03-02T23:56:42.818Z,8.70
2023-03-02T23:59:11.240Z,8.90
